Terminal Aerodrome Forecast
Issued by NWS Greer, SC

Home | Current Version | Previous Version | Text Only | Print | Product List | Glossary On
Versions: 1 2 3 4 5 6 7 8 9 10 11 12 13 14 15 16 17 18 19 20 21 22 23 24 25 26 27 28 29 30 31 32 33 34 35 36 37 38 39 40 41 42 43 44 45 46 47 48 49 50
000
FTUS42 KGSP 050004 RRA
TAFCLT
TAF
KCLT 050004Z 0500/0524 21009KT P6SM BKN060
     FM050600 21010G18KT P6SM OVC020
     FM050800 21009KT 5SM BR OVC008
     FM051100 21004KT 4SM -RA BR OVC008
     FM051400 30007KT 2SM -RA BR OVC008
     FM051600 35010KT 2SM -RA BR OVC008
     FM051800 02010G18KT 2SM BR OVC008=

USA.gov is the U.S. government's official web portal to all federal, state and local government web resources and services.